Time;durP1;ratioP1;P1;durP2;ratioP2;P2;SDS_P1;SDS_P2;PMS_P1;PMS_P2;Temp;Humidity;BMP_temperature;BMP_pressure;BME280_temperature;BME280_humidity;BME280_pressure;Samples;Min_cycle;Max_cycle;Signal;HPM_P1;HPM_P2
2022/03/29 00:01:00;;;;;;;25.27;11.13;;;;;;;7.61;74.08;101587.78;5046316;28;20052;-86
2022/03/29 00:03:26;;;;;;;24.02;11.73;;;;;;;7.58;75.03;101575.25;5043309;28;20606;-85
2022/03/29 00:05:52;;;;;;;20.77;9.95;;;;;;;7.60;74.16;101586.91;5047383;28;20053;-84
2022/03/29 00:08:18;;;;;;;28.30;12.20;;;;;;;7.49;73.64;101575.69;5043184;28;20047;-85
2022/03/29 00:10:44;;;;;;;22.65;10.23;;;;;;;7.47;73.86;101588.44;5050735;28;20150;-86
2022/03/29 00:13:10;;;;;;;27.05;11.48;;;;;;;7.34;74.55;101574.59;5048934;28;20032;-85
2022/03/29 00:15:36;;;;;;;24.88;11.68;;;;;;;7.38;74.65;101575.34;5032612;28;20098;-86
2022/03/29 00:18:01;;;;;;;21.13;10.32;;;;;;;7.35;74.96;101568.22;5045362;28;20480;-84
2022/03/29 00:20:26;;;;;;;28.42;11.32;;;;;;;7.31;75.15;101568.44;5043530;28;20029;-86
2022/03/29 00:22:52;;;;;;;25.25;11.35;;;;;;;7.26;76.30;101567.78;5049230;28;20491;-83
2022/03/29 00:25:18;;;;;;;24.00;10.80;;;;;;;7.23;75.19;101573.31;5044213;28;20037;-85
2022/03/29 00:27:43;;;;;;;22.27;10.23;;;;;;;7.22;75.17;101571.56;5032318;28;20103;-86
2022/03/29 00:30:15;;;;;;;18.88;10.02;;;;;;;7.19;75.67;101572.63;5032673;28;20029;-84
2022/03/29 00:32:41;;;;;;;21.67;10.82;;;;;;;7.14;75.51;101569.25;5030713;28;20064;-84
2022/03/29 00:35:08;;;;;;;22.40;11.10;;;;;;;7.08;76.68;101562.28;5046226;28;20499;-85
2022/03/29 00:37:34;;;;;;;25.35;11.25;;;;;;;7.07;77.95;101554.22;5050857;28;20029;-84
2022/03/29 00:40:00;;;;;;;24.08;11.90;;;;;;;7.03;76.23;101550.78;5030989;28;20419;-86
2022/03/29 00:42:25;;;;;;;21.80;11.05;;;;;;;6.97;77.46;101545.66;5043441;28;20459;-84
2022/03/29 00:44:51;;;;;;;27.73;13.38;;;;;;;6.97;77.96;101551.06;5032093;28;20029;-85
2022/03/29 00:47:16;;;;;;;21.63;10.43;;;;;;;6.93;76.75;101537.75;5046840;28;20037;-84
2022/03/29 00:49:41;;;;;;;22.45;11.75;;;;;;;6.95;76.26;101541.25;5029047;28;20048;-85
2022/03/29 00:52:08;;;;;;;24.05;12.13;;;;;;;6.94;77.64;101534.09;5029024;28;20063;-85
2022/03/29 00:54:37;;;;;;;23.25;11.82;;;;;;;6.88;77.57;101528.03;5032540;28;20131;-86
2022/03/29 00:57:04;;;;;;;25.98;12.25;;;;;;;6.85;76.90;101528.19;5050341;28;20037;-85
2022/03/29 00:59:30;;;;;;;31.45;14.85;;;;;;;6.86;80.18;101527.25;5047161;28;20396;-86
2022/03/29 01:02:00;;;;;;;24.70;13.27;;;;;;;6.83;78.01;101527.38;5048452;28;20123;-84
2022/03/29 01:04:27;;;;;;;30.60;14.73;;;;;;;6.82;80.40;101524.75;5046591;28;20135;-85
2022/03/29 01:06:57;;;;;;;30.75;13.93;;;;;;;6.77;79.11;101516.84;5031097;28;20053;-84
2022/03/29 01:09:23;;;;;;;30.60;14.20;;;;;;;6.77;77.55;101524.97;5032535;28;20044;-84
2022/03/29 01:11:49;;;;;;;20.95;11.60;;;;;;;6.69;77.50;101513.59;5049266;28;20442;-84
2022/03/29 01:14:14;;;;;;;25.23;13.73;;;;;;;6.68;77.98;101517.25;5047081;28;20087;-84
2022/03/29 01:19:25;;;;;;;25.52;13.15;;;;;;;6.67;79.37;101507.41;5036139;28;20041;-85
2022/03/29 01:22:02;;;;;;;27.38;13.88;;;;;;;6.72;79.22;101509.91;5046276;28;20040;-84
2022/03/29 01:24:28;;;;;;;25.35;13.68;;;;;;;6.68;79.56;101510.97;5039016;28;20458;-84
2022/03/29 01:26:59;;;;;;;28.05;14.25;;;;;;;6.65;79.60;101514.69;5021074;28;20083;-84
2022/03/29 01:29:25;;;;;;;25.63;13.13;;;;;;;6.59;79.29;101513.16;5047187;28;20063;-83
2022/03/29 01:31:52;;;;;;;27.58;13.38;;;;;;;6.56;79.40;101507.88;5030132;28;20109;-85
2022/03/29 01:34:19;;;;;;;26.80;15.20;;;;;;;6.49;81.64;101501.00;5043752;28;20044;-85
2022/03/29 01:36:44;;;;;;;33.63;15.93;;;;;;;6.50;81.30;101496.47;5045488;28;20423;-84
2022/03/29 01:39:10;;;;;;;35.08;15.43;;;;;;;6.49;81.80;101501.00;5038340;28;20120;-84
2022/03/29 01:41:35;;;;;;;36.28;16.00;;;;;;;6.48;81.76;101504.66;5027995;28;20035;-85
2022/03/29 01:44:01;;;;;;;36.88;16.10;;;;;;;6.46;81.33;101503.81;5047288;28;20033;-87
2022/03/29 01:46:26;;;;;;;32.00;16.50;;;;;;;6.43;83.51;101498.53;5047783;28;20037;-84
2022/03/29 01:48:52;;;;;;;33.92;15.93;;;;;;;6.37;83.63;101490.72;5026074;28;20038;-84
2022/03/29 01:51:17;;;;;;;32.80;15.80;;;;;;;6.31;83.68;101491.00;5031096;28;20063;-84
2022/03/29 01:53:45;;;;;;;32.15;16.08;;;;;;;6.27;84.20;101490.25;5049975;28;20037;-86
2022/03/29 01:56:11;;;;;;;34.83;16.60;;;;;;;6.28;83.64;101496.53;5047378;28;20029;-84
2022/03/29 01:58:36;;;;;;;36.90;18.27;;;;;;;6.28;83.48;101483.03;5044756;28;20124;-84
2022/03/29 02:01:02;;;;;;;38.90;18.05;;;;;;;6.28;82.34;101478.50;5046653;28;20037;-84
2022/03/29 02:03:27;;;;;;;36.70;17.60;;;;;;;6.30;84.51;101473.03;5044956;28;20037;-86
2022/03/29 02:05:53;;;;;;;36.88;17.30;;;;;;;6.28;84.05;101472.22;5046450;28;20052;-84
2022/03/29 02:08:18;;;;;;;41.45;17.67;;;;;;;6.20;84.47;101458.16;5047598;28;20437;-85
2022/03/29 02:10:44;;;;;;;40.13;19.10;;;;;;;6.23;84.13;101468.84;5050370;28;20598;-84
2022/03/29 02:13:09;;;;;;;34.78;17.33;;;;;;;6.25;83.28;101467.84;5029338;28;20025;-85
2022/03/29 02:15:39;;;;;;;41.65;18.42;;;;;;;6.28;84.34;101464.13;5047658;28;20040;-84
2022/03/29 02:18:05;;;;;;;39.85;18.75;;;;;;;6.23;83.51;101450.81;5028314;28;20029;-87
2022/03/29 02:20:31;;;;;;;40.80;18.45;;;;;;;6.23;84.03;101455.34;5034772;28;20025;-84
2022/03/29 02:23:06;;;;;;;38.47;18.88;;;;;;;6.23;83.86;101449.94;5047509;28;20035;-84
2022/03/29 02:25:33;;;;;;;39.70;18.75;;;;;;;6.24;82.83;101457.09;5047972;28;20132;-85
2022/03/29 02:27:58;;;;;;;32.90;16.92;;;;;;;6.24;83.27;101451.69;5024118;28;20055;-85
2022/03/29 02:30:24;;;;;;;36.72;18.65;;;;;;;6.22;82.78;101446.34;5030611;28;20037;-85
2022/03/29 02:32:49;;;;;;;39.20;19.05;;;;;;;6.22;83.76;101438.25;5044685;28;20647;-86
2022/03/29 02:35:15;;;;;;;36.83;19.08;;;;;;;6.21;82.40;101441.91;5024417;28;20372;-85
2022/03/29 02:37:40;;;;;;;37.95;19.35;;;;;;;6.20;81.78;101436.56;5046488;28;20445;-84
2022/03/29 02:40:08;;;;;;;36.00;17.27;;;;;;;6.20;83.66;101433.84;5028940;28;20527;-84
2022/03/29 02:42:40;;;;;;;41.83;18.70;;;;;;;6.23;82.69;101428.31;5022464;28;20036;-84
2022/03/29 02:45:07;;;;;;;38.05;17.73;;;;;;;6.22;82.81;101427.44;5041881;28;20037;-85
2022/03/29 02:47:33;;;;;;;37.38;18.48;;;;;;;6.20;82.74;101420.34;5044531;28;20021;-84
2022/03/29 02:49:58;;;;;;;37.38;19.15;;;;;;;6.19;83.82;101414.06;5020749;28;20044;-85
2022/03/29 02:52:23;;;;;;;40.00;18.00;;;;;;;6.21;84.35;101416.72;5030662;28;20037;-85
2022/03/29 02:54:49;;;;;;;44.75;19.95;;;;;;;6.18;84.91;101409.63;5048569;28;20484;-84
2022/03/29 02:57:14;;;;;;;40.13;19.52;;;;;;;6.18;84.90;101406.03;5026595;28;20088;-86
2022/03/29 02:59:39;;;;;;;39.28;19.20;;;;;;;6.14;83.99;101399.88;5029475;28;20036;-87
2022/03/29 03:02:05;;;;;;;38.83;18.27;;;;;;;6.16;83.76;101403.41;5043241;28;20033;-86
2022/03/29 03:04:31;;;;;;;38.15;17.23;;;;;;;6.16;82.84;101402.53;5045475;28;20021;-86
2022/03/29 03:06:56;;;;;;;40.53;19.92;;;;;;;6.16;82.50;101391.75;5044198;28;20110;-88
2022/03/29 03:09:21;;;;;;;44.92;20.02;;;;;;;6.19;83.88;101395.16;5044555;28;20028;-87
2022/03/29 03:11:47;;;;;;;43.17;20.40;;;;;;;6.18;83.81;101390.69;5027244;28;20036;-84
2022/03/29 03:14:12;;;;;;;38.55;19.35;;;;;;;6.19;83.33;101392.44;5018293;28;20151;-86
2022/03/29 03:16:38;;;;;;;38.08;18.52;;;;;;;6.20;83.51;101396.03;5043909;28;20127;-84
2022/03/29 03:19:03;;;;;;;47.88;20.70;;;;;;;6.16;84.55;101387.22;5028702;28;20024;-85
2022/03/29 03:21:28;;;;;;;40.45;20.17;;;;;;;6.16;84.28;101389.91;5026355;28;20037;-85
2022/03/29 03:23:54;;;;;;;46.33;20.92;;;;;;;6.11;84.40;101382.00;5047043;28;20498;-87
2022/03/29 03:26:19;;;;;;;42.65;19.65;;;;;;;6.11;83.92;101387.41;5029770;28;20152;-84
2022/03/29 03:28:44;;;;;;;46.47;21.63;;;;;;;6.08;84.36;101379.44;5028458;28;20468;-85
2022/03/29 03:31:10;;;;;;;43.72;20.25;;;;;;;6.09;83.74;101386.59;5046087;28;20120;-85
2022/03/29 03:33:35;;;;;;;41.22;20.23;;;;;;;6.09;84.74;101396.53;5038542;28;20029;-87
2022/03/29 03:36:00;;;;;;;39.13;19.70;;;;;;;6.07;84.93;101384.94;5029241;28;20041;-85
2022/03/29 03:38:26;;;;;;;44.75;20.38;;;;;;;6.07;84.50;101385.78;5029825;28;20032;-85
2022/03/29 03:40:51;;;;;;;42.92;21.58;;;;;;;6.06;85.77;101377.75;5034097;28;20140;-88
2022/03/29 03:43:16;;;;;;;43.08;21.63;;;;;;;5.99;85.55;101377.16;5060144;28;20028;-88
2022/03/29 03:45:42;;;;;;;41.53;19.98;;;;;;;5.97;85.66;101376.34;5043888;28;20143;-86
2022/03/29 03:48:07;;;;;;;46.95;21.30;;;;;;;5.91;85.47;101371.19;5029263;28;20468;-86
2022/03/29 03:50:33;;;;;;;45.47;21.75;;;;;;;5.88;85.22;101382.13;5048788;28;20503;-85
2022/03/29 03:53:00;;;;;;;43.55;20.38;;;;;;;5.83;85.32;101381.47;5034250;28;20464;-84
2022/03/29 03:55:26;;;;;;;45.75;21.02;;;;;;;5.84;84.06;101381.38;5040328;28;20041;-84
2022/03/29 03:57:52;;;;;;;40.78;20.35;;;;;;;5.87;83.26;101378.56;5023914;28;20034;-85
2022/03/29 04:00:21;;;;;;;42.83;20.15;;;;;;;5.87;84.59;101367.75;5041959;28;20107;-86
2022/03/29 04:02:49;;;;;;;45.95;22.50;;;;;;;5.87;84.38;101366.84;5044457;28;20124;-84
2022/03/29 04:05:14;;;;;;;51.70;22.40;;;;;;;5.84;85.89;101372.41;5054727;28;20033;-86
2022/03/29 04:07:40;;;;;;;48.17;21.65;;;;;;;5.80;85.92;101355.47;5029781;28;20076;-86
2022/03/29 04:10:07;;;;;;;47.33;20.58;;;;;;;5.79;85.08;101363.66;5049738;28;20462;-85
2022/03/29 04:12:32;;;;;;;48.03;22.00;;;;;;;5.75;84.98;101359.31;5044592;28;20035;-85
2022/03/29 04:14:58;;;;;;;42.55;19.58;;;;;;;5.73;83.88;101362.06;5033085;28;20349;-87
2022/03/29 04:17:23;;;;;;;43.00;20.55;;;;;;;5.76;83.74;101340.34;5048718;28;20029;-86
2022/03/29 04:19:48;;;;;;;46.80;20.98;;;;;;;5.79;85.20;101340.22;5029811;28;20450;-85
2022/03/29 04:22:18;;;;;;;50.15;22.67;;;;;;;5.80;85.95;101346.50;5032729;28;20138;-85
2022/03/29 04:24:46;;;;;;;45.97;20.90;;;;;;;5.78;84.47;101335.78;5032269;28;20583;-86
2022/03/29 04:27:11;;;;;;;41.17;19.60;;;;;;;5.80;83.35;101331.16;5046817;28;20036;-85
2022/03/29 04:29:37;;;;;;;42.42;20.42;;;;;;;5.82;83.07;101340.06;5031270;28;20029;-86
2022/03/29 04:32:03;;;;;;;46.72;20.98;;;;;;;5.84;84.52;101338.19;5047412;28;20128;-87
2022/03/29 04:34:28;;;;;;;51.10;23.15;;;;;;;5.76;86.17;101332.25;5026010;28;20024;-85
2022/03/29 04:36:54;;;;;;;53.47;23.67;;;;;;;5.67;86.37;101332.66;5034431;28;20331;-85
2022/03/29 04:39:19;;;;;;;49.60;22.77;;;;;;;5.55;86.47;101334.09;5048618;28;20028;-88
2022/03/29 04:41:45;;;;;;;48.03;23.52;;;;;;;5.51;86.80;101328.91;5032323;28;20056;-86
2022/03/29 04:44:10;;;;;;;54.03;24.83;;;;;;;5.46;87.82;101322.81;5044901;28;20476;-85
2022/03/29 04:46:35;;;;;;;56.47;25.42;;;;;;;5.44;87.57;101330.09;5050013;28;20098;-85
2022/03/29 04:49:01;;;;;;;55.70;25.17;;;;;;;5.43;87.48;101334.59;5032406;28;20060;-86
2022/03/29 04:51:26;;;;;;;57.42;25.40;;;;;;;5.38;87.59;101329.41;5041396;28;20040;-85
2022/03/29 04:53:52;;;;;;;53.85;24.42;;;;;;;5.35;88.11;101323.25;5034565;28;20127;-86
2022/03/29 04:56:17;;;;;;;58.20;24.95;;;;;;;5.28;87.98;101316.41;5050273;28;20024;-86
2022/03/29 04:58:43;;;;;;;52.42;25.00;;;;;;;5.23;88.39;101316.59;5033258;28;20063;-89
2022/03/29 05:01:08;;;;;;;64.20;27.98;;;;;;;5.10;89.31;101301.88;5051372;28;20385;-86
2022/03/29 05:03:33;;;;;;;60.88;27.10;;;;;;;5.10;88.70;101304.56;5042126;28;20037;-85
2022/03/29 05:05:59;;;;;;;66.03;27.52;;;;;;;5.06;89.75;101302.94;5043627;28;20063;-84
2022/03/29 05:08:24;;;;;;;57.90;25.80;;;;;;;5.03;89.34;101301.22;5032043;28;21005;-87
2022/03/29 05:10:49;;;;;;;62.00;27.20;;;;;;;5.01;89.27;101302.25;5033776;28;20040;-85
2022/03/29 05:13:18;;;;;;;69.68;28.35;;;;;;;5.00;89.50;101305.91;5031979;28;20037;-85
2022/03/29 05:15:44;;;;;;;68.95;28.40;;;;;;;4.97;90.05;101306.03;5047011;28;20095;-85
2022/03/29 05:18:09;;;;;;;64.75;28.17;;;;;;;4.94;89.79;101300.75;5037890;28;20029;-86
2022/03/29 05:20:36;;;;;;;65.60;29.73;;;;;;;4.97;90.39;101303.31;5048562;28;20487;-85
2022/03/29 05:23:02;;;;;;;65.65;28.70;;;;;;;4.96;90.15;101294.34;5028784;28;20037;-86
2022/03/29 05:25:28;;;;;;;65.10;27.88;;;;;;;5.01;90.29;101296.88;5054180;28;20396;-85
2022/03/29 05:27:55;;;;;;;70.13;29.58;;;;;;;5.06;90.35;101303.81;5028068;28;20041;-85
2022/03/29 05:30:21;;;;;;;64.18;26.73;;;;;;;5.11;89.94;101309.00;5043396;28;20102;-86
2022/03/29 05:32:47;;;;;;;80.88;31.23;;;;;;;5.15;90.55;101307.94;5029174;28;20041;-88
2022/03/29 05:35:13;;;;;;;64.63;28.40;;;;;;;5.19;90.11;101317.66;5030560;28;20520;-89
2022/03/29 05:37:41;;;;;;;66.60;28.27;;;;;;;5.22;90.14;101305.84;5052959;28;20035;-86
2022/03/29 05:40:08;;;;;;;69.28;29.65;;;;;;;5.27;90.12;101312.81;5049132;28;20036;-85
2022/03/29 05:42:42;;;;;;;79.15;30.48;;;;;;;5.31;90.38;101309.03;5024531;28;20143;-87
2022/03/29 05:45:09;;;;;;;74.32;30.23;;;;;;;5.31;90.45;101305.44;5039833;28;20429;-86
2022/03/29 05:50:18;;;;;;;76.38;30.98;;;;;;;5.34;90.78;101297.25;5049159;28;20499;-86
2022/03/29 05:52:44;;;;;;;86.75;30.20;;;;;;;5.41;90.88;101301.44;5050664;28;20033;-85
2022/03/29 05:55:09;;;;;;;73.15;29.55;;;;;;;5.38;90.37;101298.88;5043429;28;20041;-85
2022/03/29 05:57:35;;;;;;;76.28;30.70;;;;;;;5.42;90.58;101300.47;5041267;28;20021;-86
2022/03/29 06:00:00;;;;;;;77.53;32.15;;;;;;;5.40;90.67;101299.66;5031440;28;20029;-85
2022/03/29 06:02:26;;;;;;;82.20;32.33;;;;;;;5.41;91.10;101300.53;5029604;28;20504;-87
2022/03/29 06:04:51;;;;;;;89.70;31.67;;;;;;;5.45;91.16;101305.72;5043975;28;20032;-85
2022/03/29 06:07:17;;;;;;;84.35;30.02;;;;;;;5.53;91.61;101300.00;5045952;28;20118;-85
2022/03/29 06:09:43;;;;;;;79.85;31.98;;;;;;;5.54;91.44;101296.34;5046845;28;20033;-88
2022/03/29 06:12:08;;;;;;;77.28;29.58;;;;;;;5.58;91.25;101298.84;5033672;28;20049;-86
2022/03/29 06:14:34;;;;;;;80.47;32.03;;;;;;;5.58;90.93;101298.84;5040336;28;20040;-86
2022/03/29 06:17:00;;;;;;;74.53;30.60;;;;;;;5.62;90.60;101294.19;5046390;28;20055;-85
2022/03/29 06:19:26;;;;;;;89.28;32.80;;;;;;;5.73;90.93;101308.06;5025274;28;20029;-85
2022/03/29 06:21:51;;;;;;;81.82;32.30;;;;;;;5.72;90.78;101294.66;5025728;28;20029;-85
2022/03/29 06:24:17;;;;;;;85.25;33.22;;;;;;;5.76;90.84;101296.28;5026942;28;20030;-86
2022/03/29 06:26:42;;;;;;;78.93;31.42;;;;;;;5.76;90.35;101299.84;5046458;28;20084;-83
2022/03/29 06:29:10;;;;;;;81.90;30.40;;;;;;;5.78;90.87;101316.88;5048371;28;20079;-89
2022/03/29 06:31:35;;;;;;;79.57;30.40;;;;;;;5.76;90.88;101305.25;5050336;28;20117;-86
2022/03/29 06:34:01;;;;;;;87.22;32.03;;;;;;;5.79;90.79;101304.25;5029112;28;20017;-90
2022/03/29 06:36:27;;;;;;;83.85;32.35;;;;;;;5.82;90.70;101312.19;5045870;28;20037;-84
2022/03/29 06:38:53;;;;;;;83.38;32.50;;;;;;;5.82;90.11;101313.06;5028628;28;20041;-86
2022/03/29 06:41:19;;;;;;;83.28;31.75;;;;;;;5.83;90.64;101308.56;5034166;28;20336;-86
2022/03/29 06:43:44;;;;;;;84.25;32.75;;;;;;;5.83;90.12;101303.16;5042562;28;20355;-86
2022/03/29 06:46:10;;;;;;;84.97;32.92;;;;;;;5.81;90.67;101292.41;5046299;28;20024;-86
2022/03/29 06:48:37;;;;;;;86.82;34.00;;;;;;;5.80;90.38;101290.66;5043042;28;20033;-87
2022/03/29 06:51:03;;;;;;;93.13;33.78;;;;;;;5.83;90.45;101292.38;5026784;28;20575;-85
2022/03/29 06:53:28;;;;;;;97.68;36.58;;;;;;;5.89;90.91;101294.78;5042971;28;20480;-85
2022/03/29 06:55:54;;;;;;;95.85;32.65;;;;;;;5.89;90.99;101290.25;5036273;28;20021;-84
2022/03/29 06:58:20;;;;;;;91.53;34.65;;;;;;;5.96;90.67;101292.69;5033280;28;20045;-85
2022/03/29 07:00:46;;;;;;;73.70;28.92;;;;;;;5.97;90.06;101297.13;5049461;28;20036;-86
2022/03/29 07:03:12;;;;;;;83.57;31.40;;;;;;;5.99;90.76;101289.84;5031455;28;20056;-85
2022/03/29 07:05:42;;;;;;;90.53;31.77;;;;;;;6.05;90.53;101292.25;5043106;28;20036;-85
2022/03/29 07:08:10;;;;;;;81.95;31.48;;;;;;;6.06;90.49;101283.22;5024789;28;20096;-87
2022/03/29 07:13:22;;;;;;;94.80;32.83;;;;;;;6.11;89.77;101297.41;5033265;28;20041;-88
2022/03/29 07:15:49;;;;;;;86.43;31.98;;;;;;;6.09;90.31;101286.66;5049428;28;20392;-84
2022/03/29 07:18:14;;;;;;;89.50;33.42;;;;;;;6.14;90.05;101298.13;5045123;28;20048;-86
2022/03/29 07:20:40;;;;;;;91.88;32.72;;;;;;;6.13;89.71;101295.50;5046953;28;20029;-85
2022/03/29 07:23:05;;;;;;;89.10;34.00;;;;;;;6.14;90.00;101298.13;5035035;28;20051;-84
2022/03/29 07:25:32;;;;;;;100.03;32.20;;;;;;;6.17;90.09;101302.50;5047910;28;20029;-84
2022/03/29 07:27:58;;;;;;;89.35;32.03;;;;;;;6.22;90.18;101300.47;5050675;28;20063;-85
2022/03/29 07:30:24;;;;;;;95.03;33.53;;;;;;;6.18;90.10;101293.44;5051238;28;20032;-84
2022/03/29 07:32:54;;;;;;;83.90;31.75;;;;;;;6.18;89.92;101288.06;5050804;28;20102;-84
2022/03/29 07:35:21;;;;;;;98.18;34.78;;;;;;;6.20;89.98;101296.06;5042329;28;20472;-88
2022/03/29 07:37:48;;;;;;;93.00;34.42;;;;;;;6.18;89.98;101303.38;5042785;28;20035;-89
2022/03/29 07:40:17;;;;;;;89.35;31.42;;;;;;;6.12;90.08;101300.03;5045338;28;20040;-84
2022/03/29 07:42:42;;;;;;;82.15;31.10;;;;;;;6.02;90.70;101298.72;5041967;28;20350;-87
2022/03/29 07:45:11;;;;;;;97.40;32.53;;;;;;;6.03;90.20;101316.66;5030486;28;20097;-87
2022/03/29 07:47:38;;;;;;;91.60;33.05;;;;;;;5.99;90.55;101314.16;5048336;28;20162;-86
2022/03/29 07:50:07;;;;;;;89.15;32.20;;;;;;;6.00;91.04;101311.38;5019205;28;20098;-85
2022/03/29 07:52:37;;;;;;;94.03;34.13;;;;;;;6.02;90.82;101316.75;5031241;28;20025;-86
2022/03/29 07:55:04;;;;;;;95.30;31.42;;;;;;;6.00;90.83;101313.22;5048533;28;20365;-90
2022/03/29 07:57:29;;;;;;;91.72;33.42;;;;;;;5.97;90.56;101308.84;5047028;28;20088;-85
2022/03/29 07:59:54;;;;;;;94.25;31.73;;;;;;;5.92;91.27;101310.84;5029159;28;20120;-87
2022/03/29 08:02:20;;;;;;;95.68;32.35;;;;;;;5.96;91.91;101317.00;5045797;28;20040;-84
2022/03/29 08:04:45;;;;;;;101.45;33.00;;;;;;;5.95;91.88;101312.56;5018538;28;20481;-86
2022/03/29 08:07:11;;;;;;;100.55;34.40;;;;;;;6.00;91.52;101314.09;5043122;28;20457;-86
2022/03/29 08:09:37;;;;;;;96.68;33.95;;;;;;;6.06;91.66;101319.22;5026310;28;20029;-85
2022/03/29 08:12:02;;;;;;;103.28;34.08;;;;;;;6.09;90.67;101310.09;5027475;28;20044;-86
2022/03/29 08:14:28;;;;;;;98.88;34.92;;;;;;;6.13;90.79;101312.56;5044517;28;20127;-87
2022/03/29 08:16:55;;;;;;;101.15;33.60;;;;;;;6.11;90.77;101308.22;5047719;28;20033;-89
2022/03/29 08:19:21;;;;;;;98.18;33.15;;;;;;;6.08;90.68;101313.75;5040377;28;20029;-85
2022/03/29 08:21:52;;;;;;;96.75;32.03;;;;;;;6.05;90.75;101298.53;5029113;28;20040;-88
2022/03/29 08:24:20;;;;;;;99.38;33.40;;;;;;;6.16;90.74;101308.00;5062335;28;20323;-84
2022/03/29 08:26:48;;;;;;;99.80;33.10;;;;;;;6.20;90.66;101309.56;5049108;28;20416;-86
2022/03/29 08:29:16;;;;;;;106.30;34.00;;;;;;;6.28;91.27;101310.09;5031549;28;20545;-85
2022/03/29 08:31:42;;;;;;;112.97;34.15;;;;;;;6.26;90.34;101299.38;5051376;28;20063;-85
2022/03/29 08:34:08;;;;;;;98.43;35.17;;;;;;;6.29;90.49;101303.75;5053995;28;20029;-85
2022/03/29 08:36:36;;;;;;;98.88;33.30;;;;;;;6.39;90.78;101300.56;5025251;28;20036;-88
2022/03/29 08:39:03;;;;;;;102.22;33.40;;;;;;;6.48;90.28;101301.94;5053778;28;20111;-86
2022/03/29 08:41:35;;;;;;;113.55;33.90;;;;;;;6.53;89.66;101296.31;5038886;28;20106;-87
2022/03/29 08:44:01;;;;;;;111.75;34.70;;;;;;;6.53;89.07;101299.88;5050014;28;20036;-85
2022/03/29 08:46:32;;;;;;;108.47;34.35;;;;;;;6.51;89.19;101298.19;5052299;28;20041;-87
2022/03/29 08:48:59;;;;;;;97.22;30.70;;;;;;;6.57;89.30;101303.28;5043546;28;20037;-85
2022/03/29 08:51:24;;;;;;;96.30;31.80;;;;;;;6.65;89.30;101296.56;5044668;28;20124;-86
2022/03/29 08:53:50;;;;;;;100.35;33.45;;;;;;;6.68;88.71;101300.09;5036560;28;20068;-87
2022/03/29 08:56:15;;;;;;;94.50;30.48;;;;;;;6.64;88.67;101305.63;5032464;28;20480;-87
2022/03/29 08:58:41;;;;;;;94.25;33.08;;;;;;;6.55;88.84;101303.38;5047209;28;20084;-87
2022/03/29 09:01:06;;;;;;;103.40;31.98;;;;;;;6.62;89.49;101306.66;5050770;28;20024;-85
2022/03/29 09:03:32;;;;;;;88.57;31.42;;;;;;;6.65;88.70;101296.56;5037798;28;20562;-85
2022/03/29 09:06:08;;;;;;;96.80;30.95;;;;;;;6.79;88.91;101301.31;5049098;28;20056;-85
2022/03/29 09:08:47;;;;;;;96.57;29.92;;;;;;;6.82;88.25;101295.75;5050004;28;20251;-85
2022/03/29 09:11:13;;;;;;;98.57;31.27;;;;;;;6.77;88.44;101294.22;5047927;28;20025;-86
2022/03/29 09:13:40;;;;;;;97.00;32.38;;;;;;;6.78;88.27;101293.28;5018858;28;20400;-87
2022/03/29 09:16:10;;;;;;;99.93;31.60;;;;;;;6.81;88.14;101294.00;5047729;28;20037;-85
2022/03/29 09:18:37;;;;;;;88.93;31.75;;;;;;;6.83;87.80;101292.09;5029836;28;20116;-85
2022/03/29 09:21:13;;;;;;;86.00;30.15;;;;;;;6.89;88.02;101297.19;5044867;28;20037;-85
2022/03/29 09:23:39;;;;;;;87.82;30.85;;;;;;;6.88;88.01;101297.28;5033547;28;20289;-85
2022/03/29 09:26:05;;;;;;;86.65;30.60;;;;;;;6.86;87.96;101299.19;5042855;28;20086;-86
2022/03/29 09:28:36;;;;;;;85.95;30.90;;;;;;;6.84;87.92;101301.06;5019864;28;20033;-88
2022/03/29 09:31:22;;;;;;;99.68;31.63;;;;;;;6.78;88.37;101294.16;5052409;28;20040;-85
2022/03/29 09:33:48;;;;;;;104.18;31.35;;;;;;;6.80;88.06;101291.34;5045606;28;20028;-84
2022/03/29 09:36:14;;;;;;;94.63;30.23;;;;;;;6.92;87.93;101292.59;5028804;28;20397;-88
2022/03/29 09:38:45;;;;;;;92.70;31.05;;;;;;;6.97;88.05;101293.22;5032195;28;20036;-85
2022/03/29 09:41:30;;;;;;;88.13;29.65;;;;;;;7.07;87.78;101292.69;5055284;28;20448;-87
2022/03/29 09:43:58;;;;;;;84.65;30.65;;;;;;;7.13;87.50;101291.47;5050727;28;20041;-88
2022/03/29 09:46:23;;;;;;;77.55;28.58;;;;;;;7.05;87.36;101275.66;5040195;28;20044;-86
2022/03/29 09:48:50;;;;;;;86.03;29.88;;;;;;;7.04;87.69;101292.84;5044235;28;20037;-88
2022/03/29 09:51:18;;;;;;;80.13;29.52;;;;;;;6.96;87.49;101284.25;5013202;28;20045;-86
2022/03/29 09:53:51;;;;;;;81.78;31.25;;;;;;;6.97;88.25;101279.72;5029491;28;20029;-86
2022/03/29 09:56:24;;;;;;;86.88;31.17;;;;;;;7.03;88.41;101285.66;5048669;28;20037;-88
2022/03/29 09:59:07;;;;;;;83.38;31.20;;;;;;;7.06;88.13;101271.13;5046829;28;20044;-85
2022/03/29 10:01:47;;;;;;;77.40;30.52;;;;;;;7.06;87.82;101266.59;5032051;28;20040;-88
2022/03/29 10:04:15;;;;;;;85.22;31.60;;;;;;;7.08;87.49;101269.22;5028240;28;20034;-86
2022/03/29 10:06:42;;;;;;;80.72;29.90;;;;;;;7.08;87.66;101266.50;5041325;28;20052;-85
2022/03/29 10:09:27;;;;;;;79.55;31.20;;;;;;;7.13;87.98;101262.63;5046294;28;20033;-86
2022/03/29 10:12:07;;;;;;;78.13;29.65;;;;;;;7.21;86.98;101262.22;5033647;28;20056;-84
2022/03/29 10:14:36;;;;;;;71.03;27.27;;;;;;;7.15;87.05;101233.66;5046856;28;20483;-86
2022/03/29 10:17:04;;;;;;;68.57;27.35;;;;;;;7.26;87.15;101240.31;5047365;28;20036;-85
2022/03/29 10:19:30;;;;;;;68.13;26.30;;;;;;;7.37;86.31;101248.78;5053694;28;20033;-85
2022/03/29 10:21:57;;;;;;;68.45;25.70;;;;;;;7.40;86.88;101240.47;5041515;28;20515;-87
2022/03/29 10:24:23;;;;;;;64.85;27.35;;;;;;;7.50;86.02;101244.44;5053793;28;20441;-85
2022/03/29 10:26:51;;;;;;;64.22;26.88;;;;;;;7.70;86.39;101246.09;5047937;28;20056;-85
2022/03/29 10:29:16;;;;;;;64.03;26.83;;;;;;;7.89;86.09;101241.41;5046491;28;20060;-84
2022/03/29 10:32:05;;;;;;;68.22;27.25;;;;;;;8.03;84.39;101235.25;5048276;28;20566;-86
2022/03/29 10:34:42;;;;;;;60.83;25.95;;;;;;;8.08;84.85;101238.56;5033916;28;20038;-85
2022/03/29 10:37:18;;;;;;;63.08;25.90;;;;;;;8.11;84.70;101237.50;5033754;28;20025;-87
2022/03/29 10:39:56;;;;;;;66.97;26.20;;;;;;;8.25;84.57;101243.03;5059022;28;20033;-87
2022/03/29 10:42:29;;;;;;;61.45;24.50;;;;;;;8.25;83.81;101239.44;5049610;28;20033;-85
2022/03/29 10:45:06;;;;;;;57.45;25.70;;;;;;;8.31;83.61;101241.81;5045970;28;20029;-88
2022/03/29 10:47:33;;;;;;;73.18;26.75;;;;;;;8.23;83.29;101234.13;5046235;28;20051;-86
2022/03/29 10:50:00;;;;;;;66.22;27.50;;;;;;;8.26;82.95;101235.78;5030888;28;20163;-85
2022/03/29 10:52:25;;;;;;;56.65;24.10;;;;;;;8.33;83.87;101229.91;5026572;28;20032;-85
2022/03/29 10:54:52;;;;;;;61.45;23.92;;;;;;;8.42;83.61;101229.41;5048534;28;20392;-86
2022/03/29 10:57:20;;;;;;;67.57;27.90;;;;;;;8.48;82.76;101238.16;5048494;28;20029;-86
2022/03/29 11:00:08;;;;;;;69.40;28.80;;;;;;;8.47;83.00;101223.75;5047546;28;20033;-89
2022/03/29 11:02:34;;;;;;;66.63;27.38;;;;;;;8.43;82.09;101223.03;5033105;28;20094;-84
2022/03/29 11:05:04;;;;;;;68.22;28.33;;;;;;;8.30;82.58;101218.38;5044600;28;20075;-87
2022/03/29 11:07:31;;;;;;;65.40;28.77;;;;;;;8.28;83.11;101213.03;5048903;28;20056;-86
2022/03/29 11:10:06;;;;;;;64.07;27.45;;;;;;;8.35;83.48;101205.44;5045861;28;20028;-84
2022/03/29 11:12:37;;;;;;;67.60;29.02;;;;;;;8.35;82.79;101202.75;5028882;28;20246;-86
2022/03/29 11:15:25;;;;;;;70.13;28.43;;;;;;;8.37;83.23;101181.84;5036456;28;20029;-85
2022/03/29 11:17:56;;;;;;;63.72;28.55;;;;;;;8.57;83.53;101191.53;5028982;28;20300;-85
2022/03/29 11:20:38;;;;;;;69.70;28.70;;;;;;;8.80;82.67;101184.75;5044390;28;20043;-85
2022/03/29 11:23:06;;;;;;;63.75;29.00;;;;;;;8.93;80.45;101192.06;5047166;28;20037;-86
2022/03/29 11:25:42;;;;;;;63.75;25.92;;;;;;;9.01;80.63;101186.19;5026288;28;20076;-85